sensor_id;sensor_type;location;lat;lon;timestamp;P1;durP1;ratioP1;P2;durP2;ratioP2
31238;SDS011;17871;31.584;74.450;2022-11-20T00:01:51;211.43;;;95.28;;
31238;SDS011;17871;31.584;74.450;2022-11-20T00:04:20;201.98;;;95.32;;
31238;SDS011;17871;31.584;74.450;2022-11-20T00:06:49;220.95;;;98.00;;
31238;SDS011;17871;31.584;74.450;2022-11-20T00:09:19;213.73;;;102.07;;
31238;SDS011;17871;31.584;74.450;2022-11-20T00:11:49;213.82;;;99.22;;
31238;SDS011;17871;31.584;74.450;2022-11-20T00:14:18;206.98;;;98.15;;
31238;SDS011;17871;31.584;74.450;2022-11-20T00:16:47;204.43;;;96.18;;
31238;SDS011;17871;31.584;74.450;2022-11-20T00:19:16;209.93;;;98.38;;
31238;SDS011;17871;31.584;74.450;2022-11-20T00:21:46;198.57;;;96.20;;
31238;SDS011;17871;31.584;74.450;2022-11-20T00:24:15;204.68;;;97.18;;
31238;SDS011;17871;31.584;74.450;2022-11-20T00:26:44;220.65;;;101.28;;
31238;SDS011;17871;31.584;74.450;2022-11-20T00:29:14;202.43;;;96.57;;
31238;SDS011;17871;31.584;74.450;2022-11-20T00:31:43;212.48;;;95.88;;
31238;SDS011;17871;31.584;74.450;2022-11-20T00:34:12;205.38;;;97.78;;
31238;SDS011;17871;31.584;74.450;2022-11-20T00:36:42;218.35;;;98.97;;
31238;SDS011;17871;31.584;74.450;2022-11-20T00:39:11;220.30;;;98.25;;
31238;SDS011;17871;31.584;74.450;2022-11-20T00:41:40;218.05;;;96.43;;
31238;SDS011;17871;31.584;74.450;2022-11-20T00:44:09;202.98;;;96.45;;
31238;SDS011;17871;31.584;74.450;2022-11-20T00:46:38;228.52;;;96.43;;
31238;SDS011;17871;31.584;74.450;2022-11-20T00:49:07;209.32;;;95.90;;
31238;SDS011;17871;31.584;74.450;2022-11-20T00:51:36;211.40;;;98.32;;
31238;SDS011;17871;31.584;74.450;2022-11-20T00:54:05;199.52;;;97.60;;
31238;SDS011;17871;31.584;74.450;2022-11-20T00:56:34;215.95;;;97.45;;
31238;SDS011;17871;31.584;74.450;2022-11-20T00:59:03;207.80;;;96.72;;
31238;SDS011;17871;31.584;74.450;2022-11-20T01:01:33;203.13;;;96.75;;
31238;SDS011;17871;31.584;74.450;2022-11-20T01:04:06;199.85;;;92.40;;
31238;SDS011;17871;31.584;74.450;2022-11-20T01:06:37;223.52;;;96.72;;
31238;SDS011;17871;31.584;74.450;2022-11-20T01:09:11;215.38;;;95.30;;
31238;SDS011;17871;31.584;74.450;2022-11-20T01:11:43;241.85;;;101.72;;
31238;SDS011;17871;31.584;74.450;2022-11-20T01:14:18;209.50;;;99.18;;
31238;SDS011;17871;31.584;74.450;2022-11-20T01:16:50;226.82;;;100.43;;
31238;SDS011;17871;31.584;74.450;2022-11-20T01:19:21;225.43;;;104.03;;
31238;SDS011;17871;31.584;74.450;2022-11-20T01:21:53;242.20;;;101.60;;
31238;SDS011;17871;31.584;74.450;2022-11-20T01:24:24;244.93;;;112.20;;
31238;SDS011;17871;31.584;74.450;2022-11-20T01:26:55;243.55;;;109.20;;
31238;SDS011;17871;31.584;74.450;2022-11-20T01:29:25;236.32;;;108.05;;
31238;SDS011;17871;31.584;74.450;2022-11-20T01:31:54;250.40;;;109.97;;
31238;SDS011;17871;31.584;74.450;2022-11-20T01:34:24;259.73;;;108.47;;
31238;SDS011;17871;31.584;74.450;2022-11-20T01:36:54;244.10;;;105.47;;
31238;SDS011;17871;31.584;74.450;2022-11-20T01:39:25;236.98;;;106.90;;
31238;SDS011;17871;31.584;74.450;2022-11-20T01:41:56;254.07;;;110.37;;
31238;SDS011;17871;31.584;74.450;2022-11-20T01:44:57;275.83;;;115.97;;
31238;SDS011;17871;31.584;74.450;2022-11-20T01:50:05;288.13;;;117.93;;
31238;SDS011;17871;31.584;74.450;2022-11-20T01:53:08;269.25;;;115.75;;
31238;SDS011;17871;31.584;74.450;2022-11-20T01:55:44;252.10;;;111.72;;
31238;SDS011;17871;31.584;74.450;2022-11-20T01:58:20;250.60;;;111.00;;
31238;SDS011;17871;31.584;74.450;2022-11-20T02:00:56;231.73;;;109.13;;
31238;SDS011;17871;31.584;74.450;2022-11-20T02:03:26;243.18;;;102.28;;
31238;SDS011;17871;31.584;74.450;2022-11-20T02:08:59;208.70;;;95.75;;
31238;SDS011;17871;31.584;74.450;2022-11-20T02:11:30;208.88;;;99.68;;
31238;SDS011;17871;31.584;74.450;2022-11-20T02:14:00;204.48;;;99.18;;
31238;SDS011;17871;31.584;74.450;2022-11-20T02:16:46;223.80;;;101.20;;
31238;SDS011;17871;31.584;74.450;2022-11-20T02:19:24;232.90;;;103.68;;
31238;SDS011;17871;31.584;74.450;2022-11-20T02:24:26;237.50;;;106.75;;
31238;SDS011;17871;31.584;74.450;2022-11-20T02:26:57;242.82;;;108.75;;
31238;SDS011;17871;31.584;74.450;2022-11-20T02:32:21;254.35;;;108.78;;
31238;SDS011;17871;31.584;74.450;2022-11-20T02:34:52;231.52;;;101.70;;
31238;SDS011;17871;31.584;74.450;2022-11-20T02:37:22;233.07;;;107.75;;
31238;SDS011;17871;31.584;74.450;2022-11-20T02:39:57;239.07;;;104.20;;
31238;SDS011;17871;31.584;74.450;2022-11-20T02:42:28;215.00;;;95.00;;
31238;SDS011;17871;31.584;74.450;2022-11-20T02:44:57;198.02;;;86.22;;
31238;SDS011;17871;31.584;74.450;2022-11-20T02:47:27;192.57;;;86.78;;
31238;SDS011;17871;31.584;74.450;2022-11-20T02:49:57;197.68;;;86.32;;
31238;SDS011;17871;31.584;74.450;2022-11-20T02:52:27;187.07;;;84.90;;
31238;SDS011;17871;31.584;74.450;2022-11-20T02:54:57;211.15;;;86.55;;
31238;SDS011;17871;31.584;74.450;2022-11-20T02:57:26;172.65;;;77.55;;
31238;SDS011;17871;31.584;74.450;2022-11-20T02:59:56;163.75;;;77.53;;
31238;SDS011;17871;31.584;74.450;2022-11-20T03:02:29;140.18;;;72.35;;
31238;SDS011;17871;31.584;74.450;2022-11-20T03:04:59;168.52;;;78.22;;
31238;SDS011;17871;31.584;74.450;2022-11-20T03:07:29;176.13;;;74.03;;
31238;SDS011;17871;31.584;74.450;2022-11-20T03:09:58;138.35;;;68.30;;
31238;SDS011;17871;31.584;74.450;2022-11-20T03:12:28;124.97;;;59.60;;
31238;SDS011;17871;31.584;74.450;2022-11-20T03:14:58;123.07;;;56.90;;
31238;SDS011;17871;31.584;74.450;2022-11-20T03:17:27;155.23;;;62.92;;
31238;SDS011;17871;31.584;74.450;2022-11-20T03:19:58;139.75;;;58.13;;
31238;SDS011;17871;31.584;74.450;2022-11-20T03:22:28;124.35;;;59.67;;
31238;SDS011;17871;31.584;74.450;2022-11-20T03:24:59;104.32;;;48.70;;
31238;SDS011;17871;31.584;74.450;2022-11-20T03:27:31;102.55;;;49.28;;
31238;SDS011;17871;31.584;74.450;2022-11-20T03:30:03;90.00;;;45.22;;
31238;SDS011;17871;31.584;74.450;2022-11-20T03:32:33;78.85;;;40.95;;
31238;SDS011;17871;31.584;74.450;2022-11-20T03:35:03;95.10;;;43.05;;
31238;SDS011;17871;31.584;74.450;2022-11-20T03:37:33;89.68;;;40.20;;
31238;SDS011;17871;31.584;74.450;2022-11-20T03:40:03;75.38;;;38.78;;
31238;SDS011;17871;31.584;74.450;2022-11-20T03:42:33;92.68;;;40.92;;
31238;SDS011;17871;31.584;74.450;2022-11-20T03:45:15;78.15;;;39.53;;
31238;SDS011;17871;31.584;74.450;2022-11-20T03:47:45;73.40;;;35.50;;
31238;SDS011;17871;31.584;74.450;2022-11-20T03:50:15;67.47;;;33.33;;
31238;SDS011;17871;31.584;74.450;2022-11-20T03:52:44;62.53;;;32.33;;
31238;SDS011;17871;31.584;74.450;2022-11-20T03:55:13;67.70;;;34.78;;
31238;SDS011;17871;31.584;74.450;2022-11-20T03:57:42;74.18;;;35.17;;
31238;SDS011;17871;31.584;74.450;2022-11-20T04:00:12;75.53;;;36.90;;
31238;SDS011;17871;31.584;74.450;2022-11-20T04:02:42;66.45;;;34.10;;
31238;SDS011;17871;31.584;74.450;2022-11-20T04:05:11;84.05;;;37.20;;
31238;SDS011;17871;31.584;74.450;2022-11-20T04:07:40;69.38;;;32.95;;
31238;SDS011;17871;31.584;74.450;2022-11-20T04:10:09;74.25;;;34.15;;
31238;SDS011;17871;31.584;74.450;2022-11-20T04:12:39;77.30;;;33.83;;
31238;SDS011;17871;31.584;74.450;2022-11-20T04:15:07;82.68;;;36.00;;
31238;SDS011;17871;31.584;74.450;2022-11-20T04:17:37;69.55;;;33.63;;
31238;SDS011;17871;31.584;74.450;2022-11-20T04:20:06;72.80;;;33.53;;
31238;SDS011;17871;31.584;74.450;2022-11-20T04:22:36;71.90;;;33.50;;
31238;SDS011;17871;31.584;74.450;2022-11-20T04:25:05;92.18;;;32.67;;
31238;SDS011;17871;31.584;74.450;2022-11-20T04:27:34;108.10;;;33.45;;
31238;SDS011;17871;31.584;74.450;2022-11-20T04:30:04;48.20;;;25.52;;
31238;SDS011;17871;31.584;74.450;2022-11-20T04:32:34;56.22;;;21.65;;
31238;SDS011;17871;31.584;74.450;2022-11-20T04:35:03;50.10;;;23.55;;
31238;SDS011;17871;31.584;74.450;2022-11-20T04:37:33;52.10;;;22.63;;
31238;SDS011;17871;31.584;74.450;2022-11-20T04:40:03;55.47;;;23.40;;
31238;SDS011;17871;31.584;74.450;2022-11-20T04:42:32;50.95;;;23.20;;
31238;SDS011;17871;31.584;74.450;2022-11-20T04:45:01;46.53;;;21.90;;
31238;SDS011;17871;31.584;74.450;2022-11-20T04:47:33;50.53;;;22.65;;
31238;SDS011;17871;31.584;74.450;2022-11-20T04:50:02;48.53;;;22.63;;
31238;SDS011;17871;31.584;74.450;2022-11-20T04:52:31;53.13;;;26.10;;
31238;SDS011;17871;31.584;74.450;2022-11-20T04:55:00;59.90;;;29.40;;
31238;SDS011;17871;31.584;74.450;2022-11-20T04:57:30;61.17;;;29.20;;
31238;SDS011;17871;31.584;74.450;2022-11-20T04:59:58;58.42;;;27.30;;
31238;SDS011;17871;31.584;74.450;2022-11-20T05:02:30;73.97;;;30.63;;
31238;SDS011;17871;31.584;74.450;2022-11-20T05:05:01;73.93;;;31.25;;
31238;SDS011;17871;31.584;74.450;2022-11-20T05:07:30;69.45;;;29.88;;
31238;SDS011;17871;31.584;74.450;2022-11-20T05:09:59;67.95;;;27.88;;
31238;SDS011;17871;31.584;74.450;2022-11-20T05:12:28;68.60;;;27.25;;
31238;SDS011;17871;31.584;74.450;2022-11-20T05:14:57;67.25;;;26.42;;
31238;SDS011;17871;31.584;74.450;2022-11-20T05:17:26;69.63;;;27.70;;
31238;SDS011;17871;31.584;74.450;2022-11-20T05:19:55;71.20;;;30.20;;
31238;SDS011;17871;31.584;74.450;2022-11-20T05:22:24;62.67;;;28.77;;
31238;SDS011;17871;31.584;74.450;2022-11-20T05:24:53;64.82;;;29.92;;
31238;SDS011;17871;31.584;74.450;2022-11-20T05:27:23;64.63;;;30.13;;
31238;SDS011;17871;31.584;74.450;2022-11-20T05:29:52;75.20;;;28.60;;
31238;SDS011;17871;31.584;74.450;2022-11-20T05:32:21;62.50;;;26.60;;
31238;SDS011;17871;31.584;74.450;2022-11-20T05:34:53;69.55;;;26.33;;
31238;SDS011;17871;31.584;74.450;2022-11-20T05:37:22;51.75;;;25.45;;
31238;SDS011;17871;31.584;74.450;2022-11-20T05:39:51;50.30;;;27.35;;
31238;SDS011;17871;31.584;74.450;2022-11-20T05:42:21;66.32;;;29.15;;
31238;SDS011;17871;31.584;74.450;2022-11-20T05:45:02;63.28;;;29.88;;
31238;SDS011;17871;31.584;74.450;2022-11-20T05:47:34;76.10;;;31.42;;
31238;SDS011;17871;31.584;74.450;2022-11-20T05:50:03;66.80;;;31.30;;
31238;SDS011;17871;31.584;74.450;2022-11-20T05:52:32;61.08;;;32.60;;
31238;SDS011;17871;31.584;74.450;2022-11-20T05:55:02;79.35;;;35.13;;
31238;SDS011;17871;31.584;74.450;2022-11-20T05:57:31;75.70;;;34.53;;
31238;SDS011;17871;31.584;74.450;2022-11-20T06:00:01;81.32;;;36.95;;
31238;SDS011;17871;31.584;74.450;2022-11-20T06:02:34;77.97;;;31.85;;
31238;SDS011;17871;31.584;74.450;2022-11-20T06:05:04;66.28;;;32.65;;
31238;SDS011;17871;31.584;74.450;2022-11-20T06:07:34;88.20;;;35.10;;
31238;SDS011;17871;31.584;74.450;2022-11-20T06:10:03;62.20;;;28.55;;
31238;SDS011;17871;31.584;74.450;2022-11-20T06:12:32;62.25;;;25.95;;
31238;SDS011;17871;31.584;74.450;2022-11-20T06:15:02;42.88;;;20.85;;
31238;SDS011;17871;31.584;74.450;2022-11-20T06:17:32;49.03;;;22.27;;
31238;SDS011;17871;31.584;74.450;2022-11-20T06:20:01;43.65;;;21.35;;
31238;SDS011;17871;31.584;74.450;2022-11-20T06:22:30;54.25;;;21.00;;
31238;SDS011;17871;31.584;74.450;2022-11-20T06:25:00;53.33;;;21.48;;
31238;SDS011;17871;31.584;74.450;2022-11-20T06:27:29;44.63;;;19.40;;
31238;SDS011;17871;31.584;74.450;2022-11-20T06:29:59;40.03;;;18.58;;
31238;SDS011;17871;31.584;74.450;2022-11-20T06:32:28;43.50;;;16.30;;
31238;SDS011;17871;31.584;74.450;2022-11-20T06:34:57;33.78;;;16.15;;
31238;SDS011;17871;31.584;74.450;2022-11-20T06:37:26;37.00;;;15.82;;
31238;SDS011;17871;31.584;74.450;2022-11-20T06:39:55;39.22;;;15.93;;
31238;SDS011;17871;31.584;74.450;2022-11-20T06:42:24;36.45;;;16.55;;
31238;SDS011;17871;31.584;74.450;2022-11-20T06:44:54;37.55;;;15.60;;
31238;SDS011;17871;31.584;74.450;2022-11-20T06:47:23;37.75;;;15.45;;
31238;SDS011;17871;31.584;74.450;2022-11-20T06:49:52;27.17;;;15.35;;
31238;SDS011;17871;31.584;74.450;2022-11-20T06:52:21;37.33;;;16.02;;
31238;SDS011;17871;31.584;74.450;2022-11-20T06:54:50;33.80;;;14.77;;
31238;SDS011;17871;31.584;74.450;2022-11-20T06:57:19;37.63;;;15.30;;
31238;SDS011;17871;31.584;74.450;2022-11-20T06:59:48;41.30;;;16.42;;
31238;SDS011;17871;31.584;74.450;2022-11-20T07:02:17;27.02;;;15.30;;
31238;SDS011;17871;31.584;74.450;2022-11-20T07:04:46;31.02;;;15.25;;
31238;SDS011;17871;31.584;74.450;2022-11-20T07:07:15;38.28;;;17.20;;
31238;SDS011;17871;31.584;74.450;2022-11-20T07:09:44;32.67;;;15.35;;
31238;SDS011;17871;31.584;74.450;2022-11-20T07:12:13;34.97;;;14.63;;
31238;SDS011;17871;31.584;74.450;2022-11-20T07:14:42;37.13;;;15.50;;
31238;SDS011;17871;31.584;74.450;2022-11-20T07:17:11;36.20;;;13.82;;
31238;SDS011;17871;31.584;74.450;2022-11-20T07:19:41;31.50;;;14.32;;
31238;SDS011;17871;31.584;74.450;2022-11-20T07:22:10;45.45;;;16.45;;
31238;SDS011;17871;31.584;74.450;2022-11-20T07:24:39;39.72;;;16.02;;
31238;SDS011;17871;31.584;74.450;2022-11-20T07:27:12;38.20;;;13.68;;
31238;SDS011;17871;31.584;74.450;2022-11-20T07:29:41;33.85;;;14.43;;
31238;SDS011;17871;31.584;74.450;2022-11-20T07:32:10;26.05;;;13.10;;
31238;SDS011;17871;31.584;74.450;2022-11-20T07:34:39;37.42;;;15.05;;
31238;SDS011;17871;31.584;74.450;2022-11-20T07:37:08;44.63;;;13.80;;
31238;SDS011;17871;31.584;74.450;2022-11-20T07:39:37;36.03;;;12.50;;
31238;SDS011;17871;31.584;74.450;2022-11-20T07:42:06;26.17;;;12.07;;
31238;SDS011;17871;31.584;74.450;2022-11-20T07:44:36;27.45;;;12.60;;
31238;SDS011;17871;31.584;74.450;2022-11-20T07:47:06;32.20;;;12.77;;
31238;SDS011;17871;31.584;74.450;2022-11-20T07:49:35;31.25;;;12.15;;
31238;SDS011;17871;31.584;74.450;2022-11-20T07:52:04;25.15;;;11.00;;
31238;SDS011;17871;31.584;74.450;2022-11-20T07:54:33;27.85;;;10.70;;
31238;SDS011;17871;31.584;74.450;2022-11-20T07:57:02;28.67;;;12.43;;
31238;SDS011;17871;31.584;74.450;2022-11-20T07:59:31;33.95;;;11.68;;
31238;SDS011;17871;31.584;74.450;2022-11-20T08:02:00;25.08;;;10.38;;
31238;SDS011;17871;31.584;74.450;2022-11-20T08:04:29;40.90;;;11.25;;
31238;SDS011;17871;31.584;74.450;2022-11-20T08:06:58;25.50;;;10.88;;
31238;SDS011;17871;31.584;74.450;2022-11-20T08:09:27;31.92;;;13.02;;
31238;SDS011;17871;31.584;74.450;2022-11-20T08:11:57;17.27;;;10.40;;
31238;SDS011;17871;31.584;74.450;2022-11-20T08:14:44;28.95;;;11.50;;
31238;SDS011;17871;31.584;74.450;2022-11-20T08:17:13;27.65;;;12.25;;
31238;SDS011;17871;31.584;74.450;2022-11-20T08:19:42;24.00;;;11.10;;
31238;SDS011;17871;31.584;74.450;2022-11-20T08:22:11;31.58;;;11.70;;
31238;SDS011;17871;31.584;74.450;2022-11-20T08:24:42;34.15;;;12.35;;
31238;SDS011;17871;31.584;74.450;2022-11-20T08:27:11;41.05;;;13.80;;
31238;SDS011;17871;31.584;74.450;2022-11-20T08:29:40;30.30;;;12.02;;
31238;SDS011;17871;31.584;74.450;2022-11-20T08:32:09;28.67;;;11.13;;
31238;SDS011;17871;31.584;74.450;2022-11-20T08:34:38;24.65;;;10.88;;
31238;SDS011;17871;31.584;74.450;2022-11-20T08:37:07;22.80;;;11.45;;
31238;SDS011;17871;31.584;74.450;2022-11-20T08:39:36;31.27;;;12.82;;
31238;SDS011;17871;31.584;74.450;2022-11-20T08:42:08;49.83;;;14.60;;
31238;SDS011;17871;31.584;74.450;2022-11-20T08:44:37;32.28;;;13.40;;
31238;SDS011;17871;31.584;74.450;2022-11-20T08:47:06;39.90;;;14.00;;
31238;SDS011;17871;31.584;74.450;2022-11-20T08:49:36;25.60;;;12.43;;
31238;SDS011;17871;31.584;74.450;2022-11-20T08:52:05;29.13;;;12.02;;
31238;SDS011;17871;31.584;74.450;2022-11-20T08:54:34;34.10;;;12.80;;
31238;SDS011;17871;31.584;74.450;2022-11-20T08:57:03;32.50;;;12.13;;
31238;SDS011;17871;31.584;74.450;2022-11-20T08:59:32;32.00;;;13.88;;
31238;SDS011;17871;31.584;74.450;2022-11-20T09:02:21;26.77;;;12.02;;
31238;SDS011;17871;31.584;74.450;2022-11-20T09:04:50;42.17;;;12.90;;
31238;SDS011;17871;31.584;74.450;2022-11-20T09:07:21;24.75;;;12.57;;
31238;SDS011;17871;31.584;74.450;2022-11-20T09:09:50;23.85;;;11.55;;
31238;SDS011;17871;31.584;74.450;2022-11-20T09:12:39;34.30;;;12.07;;
31238;SDS011;17871;31.584;74.450;2022-11-20T09:15:08;27.23;;;13.40;;
31238;SDS011;17871;31.584;74.450;2022-11-20T09:17:38;26.45;;;14.07;;
31238;SDS011;17871;31.584;74.450;2022-11-20T09:20:07;29.65;;;12.52;;
31238;SDS011;17871;31.584;74.450;2022-11-20T09:22:39;27.55;;;12.90;;
31238;SDS011;17871;31.584;74.450;2022-11-20T09:25:09;33.33;;;15.98;;
31238;SDS011;17871;31.584;74.450;2022-11-20T09:27:38;27.23;;;14.63;;
31238;SDS011;17871;31.584;74.450;2022-11-20T09:30:09;34.40;;;13.52;;
31238;SDS011;17871;31.584;74.450;2022-11-20T09:32:39;36.25;;;13.93;;
31238;SDS011;17871;31.584;74.450;2022-11-20T09:35:09;38.13;;;13.85;;
31238;SDS011;17871;31.584;74.450;2022-11-20T09:37:38;43.80;;;15.50;;
31238;SDS011;17871;31.584;74.450;2022-11-20T09:40:16;29.88;;;14.93;;
31238;SDS011;17871;31.584;74.450;2022-11-20T09:45:30;39.97;;;13.65;;
31238;SDS011;17871;31.584;74.450;2022-11-20T09:56:50;28.05;;;12.45;;
31238;SDS011;17871;31.584;74.450;2022-11-20T09:59:42;25.02;;;12.70;;
31238;SDS011;17871;31.584;74.450;2022-11-20T10:05:21;22.35;;;11.63;;
31238;SDS011;17871;31.584;74.450;2022-11-20T10:10:49;23.30;;;10.95;;
31238;SDS011;17871;31.584;74.450;2022-11-20T10:23:57;19.45;;;8.57;;
31238;SDS011;17871;31.584;74.450;2022-11-20T10:29:32;80.88;;;14.55;;
31238;SDS011;17871;31.584;74.450;2022-11-20T10:32:07;36.90;;;10.32;;
31238;SDS011;17871;31.584;74.450;2022-11-20T10:37:27;29.58;;;11.05;;
31238;SDS011;17871;31.584;74.450;2022-11-20T10:42:36;21.65;;;11.93;;
31238;SDS011;17871;31.584;74.450;2022-11-20T10:47:56;32.70;;;11.32;;
31238;SDS011;17871;31.584;74.450;2022-11-20T10:50:40;42.65;;;17.15;;
31238;SDS011;17871;31.584;74.450;2022-11-20T10:53:38;38.08;;;14.52;;
31238;SDS011;17871;31.584;74.450;2022-11-20T11:01:19;64.90;;;20.55;;
31238;SDS011;17871;31.584;74.450;2022-11-20T11:03:55;42.28;;;18.38;;
31238;SDS011;17871;31.584;74.450;2022-11-20T11:06:31;35.40;;;14.82;;
31238;SDS011;17871;31.584;74.450;2022-11-20T11:09:16;46.78;;;16.13;;
31238;SDS011;17871;31.584;74.450;2022-11-20T11:11:50;57.33;;;21.02;;
31238;SDS011;17871;31.584;74.450;2022-11-20T11:14:20;52.88;;;18.95;;
31238;SDS011;17871;31.584;74.450;2022-11-20T11:16:49;51.28;;;20.25;;
31238;SDS011;17871;31.584;74.450;2022-11-20T11:19:23;49.95;;;20.58;;
31238;SDS011;17871;31.584;74.450;2022-11-20T11:21:56;58.38;;;18.42;;
31238;SDS011;17871;31.584;74.450;2022-11-20T11:24:26;58.42;;;23.88;;
31238;SDS011;17871;31.584;74.450;2022-11-20T11:27:13;76.45;;;25.13;;
31238;SDS011;17871;31.584;74.450;2022-11-20T11:29:46;47.28;;;21.40;;
31238;SDS011;17871;31.584;74.450;2022-11-20T11:32:18;52.33;;;21.30;;
31238;SDS011;17871;31.584;74.450;2022-11-20T11:35:03;51.92;;;20.15;;
31238;SDS011;17871;31.584;74.450;2022-11-20T11:37:35;41.63;;;19.48;;
31238;SDS011;17871;31.584;74.450;2022-11-20T11:40:06;51.50;;;20.58;;
31238;SDS011;17871;31.584;74.450;2022-11-20T11:42:59;61.15;;;20.73;;
31238;SDS011;17871;31.584;74.450;2022-11-20T11:45:31;69.88;;;23.58;;
31238;SDS011;17871;31.584;74.450;2022-11-20T11:48:00;73.03;;;27.48;;
31238;SDS011;17871;31.584;74.450;2022-11-20T11:50:31;72.13;;;26.77;;
31238;SDS011;17871;31.584;74.450;2022-11-20T11:53:16;87.50;;;28.85;;
31238;SDS011;17871;31.584;74.450;2022-11-20T11:56:03;92.38;;;28.63;;
31238;SDS011;17871;31.584;74.450;2022-11-20T11:58:43;86.50;;;26.27;;
31238;SDS011;17871;31.584;74.450;2022-11-20T12:01:36;72.55;;;26.23;;
31238;SDS011;17871;31.584;74.450;2022-11-20T12:07:00;63.83;;;20.83;;
31238;SDS011;17871;31.584;74.450;2022-11-20T12:13:21;77.70;;;24.92;;
31238;SDS011;17871;31.584;74.450;2022-11-20T12:16:16;77.65;;;26.33;;
31238;SDS011;17871;31.584;74.450;2022-11-20T12:18:51;88.53;;;26.73;;
31238;SDS011;17871;31.584;74.450;2022-11-20T12:27:33;95.97;;;30.77;;
31238;SDS011;17871;31.584;74.450;2022-11-20T12:30:16;90.95;;;29.38;;
31238;SDS011;17871;31.584;74.450;2022-11-20T12:38:39;98.30;;;29.10;;
31238;SDS011;17871;31.584;74.450;2022-11-20T12:50:17;52.15;;;24.30;;
31238;SDS011;17871;31.584;74.450;2022-11-20T12:52:53;64.78;;;26.60;;
31238;SDS011;17871;31.584;74.450;2022-11-20T12:55:35;69.13;;;26.40;;
31238;SDS011;17871;31.584;74.450;2022-11-20T13:01:19;54.92;;;23.85;;
31238;SDS011;17871;31.584;74.450;2022-11-20T13:04:17;72.13;;;27.80;;
31238;SDS011;17871;31.584;74.450;2022-11-20T13:06:58;75.95;;;30.05;;
31238;SDS011;17871;31.584;74.450;2022-11-20T13:09:31;86.75;;;30.20;;
31238;SDS011;17871;31.584;74.450;2022-11-20T13:12:06;87.18;;;30.27;;
31238;SDS011;17871;31.584;74.450;2022-11-20T13:17:55;94.20;;;38.78;;
31238;SDS011;17871;31.584;74.450;2022-11-20T13:20:36;101.10;;;37.58;;
31238;SDS011;17871;31.584;74.450;2022-11-20T13:23:10;78.82;;;33.20;;
31238;SDS011;17871;31.584;74.450;2022-11-20T13:25:40;101.22;;;36.10;;
31238;SDS011;17871;31.584;74.450;2022-11-20T13:30:53;113.32;;;36.45;;
31238;SDS011;17871;31.584;74.450;2022-11-20T13:36:03;89.55;;;35.67;;
31238;SDS011;17871;31.584;74.450;2022-11-20T13:38:44;86.90;;;36.47;;
31238;SDS011;17871;31.584;74.450;2022-11-20T13:41:26;88.38;;;36.67;;
31238;SDS011;17871;31.584;74.450;2022-11-20T13:44:05;80.47;;;33.97;;
31238;SDS011;17871;31.584;74.450;2022-11-20T13:46:42;101.90;;;35.15;;
31238;SDS011;17871;31.584;74.450;2022-11-20T14:00:48;110.85;;;44.20;;
31238;SDS011;17871;31.584;74.450;2022-11-20T14:03:25;98.88;;;42.03;;
31238;SDS011;17871;31.584;74.450;2022-11-20T14:08:56;94.03;;;41.88;;
31238;SDS011;17871;31.584;74.450;2022-11-20T14:11:27;91.15;;;41.25;;
31238;SDS011;17871;31.584;74.450;2022-11-20T14:16:29;113.50;;;51.88;;
31238;SDS011;17871;31.584;74.450;2022-11-20T14:22:32;124.90;;;48.35;;
31238;SDS011;17871;31.584;74.450;2022-11-20T14:25:06;201.07;;;82.90;;
31238;SDS011;17871;31.584;74.450;2022-11-20T14:27:59;155.02;;;67.20;;
31238;SDS011;17871;31.584;74.450;2022-11-20T14:30:38;142.77;;;62.88;;
31238;SDS011;17871;31.584;74.450;2022-11-20T14:33:12;154.48;;;65.32;;
31238;SDS011;17871;31.584;74.450;2022-11-20T14:35:44;212.45;;;83.25;;
31238;SDS011;17871;31.584;74.450;2022-11-20T14:38:16;375.85;;;131.40;;
31238;SDS011;17871;31.584;74.450;2022-11-20T14:40:48;511.08;;;201.10;;
31238;SDS011;17871;31.584;74.450;2022-11-20T14:45:58;245.25;;;94.75;;
31238;SDS011;17871;31.584;74.450;2022-11-20T14:48:34;184.05;;;73.43;;
31238;SDS011;17871;31.584;74.450;2022-11-20T14:51:36;175.88;;;69.15;;
31238;SDS011;17871;31.584;74.450;2022-11-20T14:54:14;172.98;;;69.78;;
31238;SDS011;17871;31.584;74.450;2022-11-20T14:56:58;181.00;;;69.40;;
31238;SDS011;17871;31.584;74.450;2022-11-20T14:59:31;180.00;;;78.47;;
31238;SDS011;17871;31.584;74.450;2022-11-20T15:02:07;184.95;;;79.70;;
31238;SDS011;17871;31.584;74.450;2022-11-20T15:04:48;284.38;;;109.85;;
31238;SDS011;17871;31.584;74.450;2022-11-20T15:07:25;199.65;;;85.38;;
31238;SDS011;17871;31.584;74.450;2022-11-20T15:10:39;155.82;;;70.85;;
31238;SDS011;17871;31.584;74.450;2022-11-20T15:12:56;175.57;;;72.75;;
31238;SDS011;17871;31.584;74.450;2022-11-20T15:15:42;210.50;;;88.82;;
31238;SDS011;17871;31.584;74.450;2022-11-20T15:18:24;259.30;;;108.90;;
31238;SDS011;17871;31.584;74.450;2022-11-20T15:20:56;236.30;;;94.78;;
31238;SDS011;17871;31.584;74.450;2022-11-20T15:23:29;171.30;;;71.97;;
31238;SDS011;17871;31.584;74.450;2022-11-20T15:25:58;195.40;;;76.82;;
31238;SDS011;17871;31.584;74.450;2022-11-20T15:28:29;186.60;;;74.03;;
31238;SDS011;17871;31.584;74.450;2022-11-20T15:31:02;159.45;;;71.30;;
31238;SDS011;17871;31.584;74.450;2022-11-20T15:33:32;197.90;;;76.07;;
31238;SDS011;17871;31.584;74.450;2022-11-20T15:36:02;169.27;;;75.82;;
31238;SDS011;17871;31.584;74.450;2022-11-20T15:38:32;157.95;;;73.43;;
31238;SDS011;17871;31.584;74.450;2022-11-20T15:41:01;177.45;;;75.68;;
31238;SDS011;17871;31.584;74.450;2022-11-20T15:43:30;181.43;;;76.15;;
31238;SDS011;17871;31.584;74.450;2022-11-20T15:46:00;203.55;;;82.22;;
31238;SDS011;17871;31.584;74.450;2022-11-20T15:51:24;194.68;;;75.75;;
31238;SDS011;17871;31.584;74.450;2022-11-20T15:53:59;228.50;;;93.38;;
31238;SDS011;17871;31.584;74.450;2022-11-20T15:56:29;212.43;;;81.88;;
31238;SDS011;17871;31.584;74.450;2022-11-20T15:59:01;192.95;;;81.13;;
31238;SDS011;17871;31.584;74.450;2022-11-20T16:01:30;189.10;;;78.40;;
31238;SDS011;17871;31.584;74.450;2022-11-20T16:03:59;169.07;;;75.63;;
31238;SDS011;17871;31.584;74.450;2022-11-20T16:06:30;169.93;;;74.85;;
31238;SDS011;17871;31.584;74.450;2022-11-20T16:08:59;175.40;;;75.20;;
31238;SDS011;17871;31.584;74.450;2022-11-20T16:11:28;177.13;;;75.18;;
31238;SDS011;17871;31.584;74.450;2022-11-20T16:13:57;180.18;;;80.90;;
31238;SDS011;17871;31.584;74.450;2022-11-20T16:16:44;166.18;;;78.38;;
31238;SDS011;17871;31.584;74.450;2022-11-20T16:19:14;192.35;;;80.88;;
31238;SDS011;17871;31.584;74.450;2022-11-20T16:21:43;216.20;;;90.03;;
31238;SDS011;17871;31.584;74.450;2022-11-20T16:24:13;207.20;;;93.75;;
31238;SDS011;17871;31.584;74.450;2022-11-20T16:26:44;258.58;;;108.78;;
31238;SDS011;17871;31.584;74.450;2022-11-20T16:29:13;256.70;;;110.38;;
31238;SDS011;17871;31.584;74.450;2022-11-20T16:31:42;280.55;;;115.85;;
31238;SDS011;17871;31.584;74.450;2022-11-20T16:34:11;257.15;;;109.47;;